sensor_id;sensor_type;location;lat;lon;timestamp;pressure;altitude;pressure_sealevel;temperature;humidity
17607;BME280;69222;52.242;20.980;2023-11-21T00:00:18;99692.34;;;0.43;87.44
17607;BME280;69222;52.242;20.980;2023-11-21T00:02:47;99697.34;;;0.40;88.17
17607;BME280;69222;52.242;20.980;2023-11-21T00:05:15;99700.63;;;0.36;87.96
17607;BME280;69222;52.242;20.980;2023-11-21T00:07:43;99705.66;;;0.35;88.06
17607;BME280;69222;52.242;20.980;2023-11-21T00:10:12;99711.56;;;0.34;88.38
17607;BME280;69222;52.242;20.980;2023-11-21T00:12:42;99712.44;;;0.36;88.57
17607;BME280;69222;52.242;20.980;2023-11-21T00:15:10;99710.72;;;0.33;88.64
17607;BME280;69222;52.242;20.980;2023-11-21T00:17:39;99711.59;;;0.35;89.06
17607;BME280;69222;52.242;20.980;2023-11-21T00:20:10;99713.25;;;0.35;88.53
17607;BME280;69222;52.242;20.980;2023-11-21T00:22:40;99725.16;;;0.37;87.99
17607;BME280;69222;52.242;20.980;2023-11-21T00:25:09;99724.34;;;0.38;87.85
17607;BME280;69222;52.242;20.980;2023-11-21T00:27:38;99734.47;;;0.38;87.89
17607;BME280;69222;52.242;20.980;2023-11-21T00:30:06;99719.94;;;0.31;87.71
17607;BME280;69222;52.242;20.980;2023-11-21T00:32:35;99734.38;;;0.34;87.53
17607;BME280;69222;52.242;20.980;2023-11-21T00:35:04;99725.81;;;0.30;87.58
17607;BME280;69222;52.242;20.980;2023-11-21T00:37:34;99733.25;;;0.22;87.94
17607;BME280;69222;52.242;20.980;2023-11-21T00:40:02;99737.47;;;0.23;88.24
17607;BME280;69222;52.242;20.980;2023-11-21T00:42:32;99735.81;;;0.26;88.28
17607;BME280;69222;52.242;20.980;2023-11-21T00:45:01;99740.13;;;0.28;87.91
17607;BME280;69222;52.242;20.980;2023-11-21T00:47:30;99733.34;;;0.27;87.78
17607;BME280;69222;52.242;20.980;2023-11-21T00:49:58;99740.03;;;0.25;87.72
17607;BME280;69222;52.242;20.980;2023-11-21T00:52:26;99736.66;;;0.24;88.03
17607;BME280;69222;52.242;20.980;2023-11-21T00:54:55;99746.75;;;0.23;88.14
17607;BME280;69222;52.242;20.980;2023-11-21T00:57:27;99744.97;;;0.19;87.59
17607;BME280;69222;52.242;20.980;2023-11-21T00:59:55;99747.44;;;0.17;88.13
17607;BME280;69222;52.242;20.980;2023-11-21T01:02:23;99755.03;;;0.16;88.79
17607;BME280;69222;52.242;20.980;2023-11-21T01:04:52;99746.53;;;0.14;88.18
17607;BME280;69222;52.242;20.980;2023-11-21T01:07:19;99747.31;;;0.11;88.07
17607;BME280;69222;52.242;20.980;2023-11-21T01:09:49;99748.91;;;0.08;88.15
17607;BME280;69222;52.242;20.980;2023-11-21T01:12:20;99754.00;;;0.09;87.91
17607;BME280;69222;52.242;20.980;2023-11-21T01:14:48;99753.16;;;0.09;88.10
17607;BME280;69222;52.242;20.980;2023-11-21T01:17:16;99760.84;;;0.12;88.54
17607;BME280;69222;52.242;20.980;2023-11-21T01:19:45;99754.78;;;0.07;88.04
17607;BME280;69222;52.242;20.980;2023-11-21T01:22:13;99760.84;;;0.12;88.02
17607;BME280;69222;52.242;20.980;2023-11-21T01:24:43;99761.69;;;0.12;87.69
17607;BME280;69222;52.242;20.980;2023-11-21T01:27:11;99761.63;;;0.11;87.39
17607;BME280;69222;52.242;20.980;2023-11-21T01:29:40;99751.09;;;-0.06;86.90
17607;BME280;69222;52.242;20.980;2023-11-21T01:32:08;99759.63;;;-0.03;86.99
17607;BME280;69222;52.242;20.980;2023-11-21T01:34:37;99773.03;;;-0.07;87.55
17607;BME280;69222;52.242;20.980;2023-11-21T01:37:05;99766.16;;;-0.11;87.16
17607;BME280;69222;52.242;20.980;2023-11-21T01:39:33;99766.97;;;-0.12;87.57
17607;BME280;69222;52.242;20.980;2023-11-21T01:42:01;99767.78;;;-0.13;87.65
17607;BME280;69222;52.242;20.980;2023-11-21T01:44:29;99770.44;;;-0.08;87.96
17607;BME280;69222;52.242;20.980;2023-11-21T01:46:59;99763.84;;;-0.02;87.83
17607;BME280;69222;52.242;20.980;2023-11-21T01:49:33;99776.53;;;-0.02;87.39
17607;BME280;69222;52.242;20.980;2023-11-21T01:52:01;99774.91;;;0.01;86.75
17607;BME280;69222;52.242;20.980;2023-11-21T01:54:31;99775.56;;;-0.07;86.78
17607;BME280;69222;52.242;20.980;2023-11-21T01:57:00;99773.75;;;-0.11;86.98
17607;BME280;69222;52.242;20.980;2023-11-21T01:59:34;99770.44;;;-0.08;86.90
17607;BME280;69222;52.242;20.980;2023-11-21T02:02:06;99768.72;;;-0.09;87.13
17607;BME280;69222;52.242;20.980;2023-11-21T02:04:34;99767.09;;;-0.07;87.33
17607;BME280;69222;52.242;20.980;2023-11-21T02:07:03;99766.31;;;-0.05;87.69
17607;BME280;69222;52.242;20.980;2023-11-21T02:09:32;99768.09;;;-0.01;87.69
17607;BME280;69222;52.242;20.980;2023-11-21T02:12:01;99769.88;;;0.04;87.50
17607;BME280;69222;52.242;20.980;2023-11-21T02:14:30;99775.88;;;0.06;86.98
17607;BME280;69222;52.242;20.980;2023-11-21T02:16:58;99780.16;;;0.08;86.08
17607;BME280;69222;52.242;20.980;2023-11-21T02:19:29;99774.94;;;0.04;85.92
17607;BME280;69222;52.242;20.980;2023-11-21T02:21:57;99785.81;;;-0.02;85.77
17607;BME280;69222;52.242;20.980;2023-11-21T02:24:31;99790.09;;;0.01;86.06
17607;BME280;69222;52.242;20.980;2023-11-21T02:26:59;99794.34;;;0.02;85.85
17607;BME280;69222;52.242;20.980;2023-11-21T02:29:27;99788.25;;;-0.05;85.48
17607;BME280;69222;52.242;20.980;2023-11-21T02:31:55;99790.75;;;-0.07;85.67
17607;BME280;69222;52.242;20.980;2023-11-21T02:34:23;99793.28;;;-0.07;86.10
17607;BME280;69222;52.242;20.980;2023-11-21T02:36:52;99791.53;;;-0.08;86.10
17607;BME280;69222;52.242;20.980;2023-11-21T02:39:20;99791.50;;;-0.09;86.27
17607;BME280;69222;52.242;20.980;2023-11-21T02:41:51;99792.44;;;-0.07;87.38
17607;BME280;69222;52.242;20.980;2023-11-21T02:44:22;99790.88;;;-0.02;86.63
17607;BME280;69222;52.242;20.980;2023-11-21T02:46:50;99798.53;;;0.01;86.07
17607;BME280;69222;52.242;20.980;2023-11-21T02:49:18;99798.56;;;0.03;86.32
17607;BME280;69222;52.242;20.980;2023-11-21T02:51:46;99800.28;;;0.04;86.50
17607;BME280;69222;52.242;20.980;2023-11-21T02:54:14;99788.44;;;0.03;86.52
17607;BME280;69222;52.242;20.980;2023-11-21T02:56:45;99794.22;;;-0.03;85.61
17607;BME280;69222;52.242;20.980;2023-11-21T02:59:15;99798.47;;;-0.02;86.47
17607;BME280;69222;52.242;20.980;2023-11-21T03:01:43;99804.44;;;0.00;86.39
17607;BME280;69222;52.242;20.980;2023-11-21T03:04:11;99798.56;;;0.03;86.29
17607;BME280;69222;52.242;20.980;2023-11-21T03:06:45;99804.50;;;0.03;85.68
17607;BME280;69222;52.242;20.980;2023-11-21T03:09:14;99803.53;;;-0.02;85.41
17607;BME280;69222;52.242;20.980;2023-11-21T03:11:43;99808.47;;;-0.07;85.43
17607;BME280;69222;52.242;20.980;2023-11-21T03:14:11;99802.47;;;-0.10;86.24
17607;BME280;69222;52.242;20.980;2023-11-21T03:16:40;99807.63;;;-0.07;85.68
17607;BME280;69222;52.242;20.980;2023-11-21T03:19:08;99801.66;;;-0.09;86.12
17607;BME280;69222;52.242;20.980;2023-11-21T03:21:36;99813.38;;;-0.11;85.80
17607;BME280;69222;52.242;20.980;2023-11-21T03:24:05;99809.84;;;-0.18;86.16
17607;BME280;69222;52.242;20.980;2023-11-21T03:26:34;99811.47;;;-0.20;85.96
17607;BME280;69222;52.242;20.980;2023-11-21T03:29:01;99818.97;;;-0.23;85.74
17607;BME280;69222;52.242;20.980;2023-11-21T03:31:31;99818.03;;;-0.27;86.38
17607;BME280;69222;52.242;20.980;2023-11-21T03:34:03;99813.69;;;-0.31;86.77
17607;BME280;69222;52.242;20.980;2023-11-21T03:36:31;99807.66;;;-0.36;86.32
17607;BME280;69222;52.242;20.980;2023-11-21T03:38:59;99811.03;;;-0.35;87.12
17607;BME280;69222;52.242;20.980;2023-11-21T03:41:28;99822.97;;;-0.31;87.25
17607;BME280;69222;52.242;20.980;2023-11-21T03:43:56;99816.13;;;-0.34;86.62
17607;BME280;69222;52.242;20.980;2023-11-21T03:46:24;99817.72;;;-0.37;86.22
17607;BME280;69222;52.242;20.980;2023-11-21T03:48:52;99822.72;;;-0.40;86.88
17607;BME280;69222;52.242;20.980;2023-11-21T03:51:25;99828.47;;;-0.44;87.37
17607;BME280;69222;52.242;20.980;2023-11-21T03:53:56;99831.00;;;-0.44;87.88
17607;BME280;69222;52.242;20.980;2023-11-21T03:56:24;99841.13;;;-0.44;88.28
17607;BME280;69222;52.242;20.980;2023-11-21T03:58:52;99847.13;;;-0.42;88.44
17607;BME280;69222;52.242;20.980;2023-11-21T04:01:20;99854.72;;;-0.42;88.84
17607;BME280;69222;52.242;20.980;2023-11-21T04:03:49;99845.22;;;-0.50;87.99
17607;BME280;69222;52.242;20.980;2023-11-21T04:06:18;99852.72;;;-0.53;88.93
17607;BME280;69222;52.242;20.980;2023-11-21T04:08:48;99854.28;;;-0.56;89.14
17607;BME280;69222;52.242;20.980;2023-11-21T04:11:16;99857.63;;;-0.59;89.64
17607;BME280;69222;52.242;20.980;2023-11-21T04:13:44;99849.09;;;-0.61;89.82
17607;BME280;69222;52.242;20.980;2023-11-21T04:16:13;99860.81;;;-0.64;89.93
17607;BME280;69222;52.242;20.980;2023-11-21T04:18:41;99862.38;;;-0.68;89.82
17607;BME280;69222;52.242;20.980;2023-11-21T04:21:09;99859.88;;;-0.66;90.78
17607;BME280;69222;52.242;20.980;2023-11-21T04:23:39;99850.72;;;-0.63;90.57
17607;BME280;69222;52.242;20.980;2023-11-21T04:26:09;99855.75;;;-0.64;90.27
17607;BME280;69222;52.242;20.980;2023-11-21T04:28:36;99859.03;;;-0.67;90.55
17607;BME280;69222;52.242;20.980;2023-11-21T04:31:05;99853.22;;;-0.64;90.85
17607;BME280;69222;52.242;20.980;2023-11-21T04:33:33;99859.22;;;-0.61;90.09
17607;BME280;69222;52.242;20.980;2023-11-21T04:36:01;99870.28;;;-0.59;90.69
17607;BME280;69222;52.242;20.980;2023-11-21T04:38:30;99865.38;;;-0.53;91.02
17607;BME280;69222;52.242;20.980;2023-11-21T04:40:58;99873.16;;;-0.46;90.71
17607;BME280;69222;52.242;20.980;2023-11-21T04:43:30;99873.25;;;-0.43;90.38
17607;BME280;69222;52.242;20.980;2023-11-21T04:45:58;99882.56;;;-0.42;89.96
17607;BME280;69222;52.242;20.980;2023-11-21T04:48:27;99888.47;;;-0.42;89.58
17607;BME280;69222;52.242;20.980;2023-11-21T04:50:55;99890.25;;;-0.39;90.34
17607;BME280;69222;52.242;20.980;2023-11-21T04:53:22;99886.00;;;-0.40;88.29
17607;BME280;69222;52.242;20.980;2023-11-21T04:55:50;99889.19;;;-0.46;88.66
17607;BME280;69222;52.242;20.980;2023-11-21T04:58:19;99884.16;;;-0.44;89.11
17607;BME280;69222;52.242;20.980;2023-11-21T05:00:49;99886.78;;;-0.41;89.57
17607;BME280;69222;52.242;20.980;2023-11-21T05:03:17;99886.03;;;-0.39;88.45
17607;BME280;69222;52.242;20.980;2023-11-21T05:05:45;99886.75;;;-0.43;88.60
17607;BME280;69222;52.242;20.980;2023-11-21T05:08:13;99887.63;;;-0.42;88.27
17607;BME280;69222;52.242;20.980;2023-11-21T05:10:41;99888.53;;;-0.40;88.68
17607;BME280;69222;52.242;20.980;2023-11-21T05:13:09;99899.59;;;-0.37;88.19
17607;BME280;69222;52.242;20.980;2023-11-21T05:15:37;99907.97;;;-0.39;87.07
17607;BME280;69222;52.242;20.980;2023-11-21T05:18:07;99906.25;;;-0.40;87.41
17607;BME280;69222;52.242;20.980;2023-11-21T05:20:35;99904.47;;;-0.43;87.88
17607;BME280;69222;52.242;20.980;2023-11-21T05:23:07;99904.56;;;-0.40;87.69
17607;BME280;69222;52.242;20.980;2023-11-21T05:25:35;99907.13;;;-0.38;87.45
17607;BME280;69222;52.242;20.980;2023-11-21T05:28:06;99905.44;;;-0.39;87.19
17607;BME280;69222;52.242;20.980;2023-11-21T05:30:34;99912.31;;;-0.35;87.48
17607;BME280;69222;52.242;20.980;2023-11-21T05:33:02;99918.22;;;-0.35;87.23
17607;BME280;69222;52.242;20.980;2023-11-21T05:35:32;99920.72;;;-0.36;86.87
17607;BME280;69222;52.242;20.980;2023-11-21T05:38:00;99921.47;;;-0.39;86.57
17607;BME280;69222;52.242;20.980;2023-11-21T05:40:28;99921.50;;;-0.37;86.43
17607;BME280;69222;52.242;20.980;2023-11-21T05:42:57;99925.72;;;-0.38;87.19
17607;BME280;69222;52.242;20.980;2023-11-21T05:45:25;99931.69;;;-0.36;86.25
17607;BME280;69222;52.242;20.980;2023-11-21T05:47:52;99932.44;;;-0.38;86.38
17607;BME280;69222;52.242;20.980;2023-11-21T05:50:20;99931.56;;;-0.40;86.83
17607;BME280;69222;52.242;20.980;2023-11-21T05:52:50;99934.09;;;-0.40;85.91
17607;BME280;69222;52.242;20.980;2023-11-21T05:55:18;99937.41;;;-0.41;85.91
17607;BME280;69222;52.242;20.980;2023-11-21T05:57:48;99934.00;;;-0.43;86.59
17607;BME280;69222;52.242;20.980;2023-11-21T06:00:16;99944.91;;;-0.44;86.56
17607;BME280;69222;52.242;20.980;2023-11-21T06:02:48;99949.19;;;-0.43;86.47
17607;BME280;69222;52.242;20.980;2023-11-21T06:05:21;99941.53;;;-0.45;86.10
17607;BME280;69222;52.242;20.980;2023-11-21T06:07:53;99943.94;;;-0.48;86.11
17607;BME280;69222;52.242;20.980;2023-11-21T06:10:23;99947.38;;;-0.47;85.46
17607;BME280;69222;52.242;20.980;2023-11-21T06:12:53;99954.91;;;-0.49;85.95
17607;BME280;69222;52.242;20.980;2023-11-21T06:15:21;99951.38;;;-0.54;85.70
17607;BME280;69222;52.242;20.980;2023-11-21T06:17:51;99968.22;;;-0.55;86.05
17607;BME280;69222;52.242;20.980;2023-11-21T06:20:21;99974.88;;;-0.58;86.17
17607;BME280;69222;52.242;20.980;2023-11-21T06:22:51;99977.31;;;-0.60;86.70
17607;BME280;69222;52.242;20.980;2023-11-21T06:25:20;99972.16;;;-0.63;86.72
17607;BME280;69222;52.242;20.980;2023-11-21T06:27:49;99978.88;;;-0.65;87.09
17607;BME280;69222;52.242;20.980;2023-11-21T06:30:18;99980.66;;;-0.62;87.60
17607;BME280;69222;52.242;20.980;2023-11-21T06:32:47;99981.59;;;-0.59;87.46
17607;BME280;69222;52.242;20.980;2023-11-21T06:35:15;99981.63;;;-0.57;87.73
17607;BME280;69222;52.242;20.980;2023-11-21T06:37:44;99976.69;;;-0.54;87.28
17607;BME280;69222;52.242;20.980;2023-11-21T06:40:18;99980.91;;;-0.53;86.94
17607;BME280;69222;52.242;20.980;2023-11-21T06:42:47;99989.38;;;-0.53;87.28
17607;BME280;69222;52.242;20.980;2023-11-21T06:45:17;99983.41;;;-0.55;86.89
17607;BME280;69222;52.242;20.980;2023-11-21T06:47:47;99996.72;;;-0.60;86.93
17607;BME280;69222;52.242;20.980;2023-11-21T06:50:15;100000.22;;;-0.57;87.30
17607;BME280;69222;52.242;20.980;2023-11-21T06:52:43;99995.75;;;-0.64;87.48
17607;BME280;69222;52.242;20.980;2023-11-21T06:55:12;100005.97;;;-0.61;87.39
17607;BME280;69222;52.242;20.980;2023-11-21T06:57:41;100006.84;;;-0.60;87.66
17607;BME280;69222;52.242;20.980;2023-11-21T07:00:10;100001.66;;;-0.63;87.21
17607;BME280;69222;52.242;20.980;2023-11-21T07:02:39;100016.91;;;-0.62;87.13
17607;BME280;69222;52.242;20.980;2023-11-21T07:05:07;100019.34;;;-0.65;87.92
17607;BME280;69222;52.242;20.980;2023-11-21T07:07:36;100022.69;;;-0.66;87.79
17607;BME280;69222;52.242;20.980;2023-11-21T07:10:05;100026.13;;;-0.64;88.04
17607;BME280;69222;52.242;20.980;2023-11-21T07:12:34;100029.50;;;-0.63;87.33
17607;BME280;69222;52.242;20.980;2023-11-21T07:15:04;100023.56;;;-0.65;87.98
17607;BME280;69222;52.242;20.980;2023-11-21T07:17:36;100028.66;;;-0.64;87.95
17607;BME280;69222;52.242;20.980;2023-11-21T07:20:08;100026.13;;;-0.64;87.77
17607;BME280;69222;52.242;20.980;2023-11-21T07:22:38;100031.19;;;-0.64;87.97
17607;BME280;69222;52.242;20.980;2023-11-21T07:25:07;100028.72;;;-0.62;87.40
17607;BME280;69222;52.242;20.980;2023-11-21T07:27:36;100036.25;;;-0.64;86.87
17607;BME280;69222;52.242;20.980;2023-11-21T07:30:07;100034.53;;;-0.65;87.44
17607;BME280;69222;52.242;20.980;2023-11-21T07:32:37;100034.56;;;-0.63;87.34
17607;BME280;69222;52.242;20.980;2023-11-21T07:35:08;100039.59;;;-0.65;86.52
17607;BME280;69222;52.242;20.980;2023-11-21T07:37:36;100042.94;;;-0.66;86.89
17607;BME280;69222;52.242;20.980;2023-11-21T07:40:06;100037.00;;;-0.66;86.84
17607;BME280;69222;52.242;20.980;2023-11-21T07:42:36;100043.00;;;-0.63;86.56
17607;BME280;69222;52.242;20.980;2023-11-21T07:45:06;100042.34;;;-0.59;86.29
17607;BME280;69222;52.242;20.980;2023-11-21T07:47:35;100048.34;;;-0.55;86.36
17607;BME280;69222;52.242;20.980;2023-11-21T07:50:07;100042.47;;;-0.54;85.82
17607;BME280;69222;52.242;20.980;2023-11-21T07:52:37;100046.72;;;-0.53;85.42
17607;BME280;69222;52.242;20.980;2023-11-21T07:55:07;100049.13;;;-0.56;84.88
17607;BME280;69222;52.242;20.980;2023-11-21T07:57:35;100045.91;;;-0.52;85.48
17607;BME280;69222;52.242;20.980;2023-11-21T08:00:06;100043.53;;;-0.47;85.26
17607;BME280;69222;52.242;20.980;2023-11-21T08:02:36;100047.09;;;-0.41;85.54
17607;BME280;69222;52.242;20.980;2023-11-21T08:05:04;100034.66;;;-0.35;84.86
17607;BME280;69222;52.242;20.980;2023-11-21T08:07:41;100047.34;;;-0.33;85.59
17607;BME280;69222;52.242;20.980;2023-11-21T08:10:09;100055.00;;;-0.32;84.90
17607;BME280;69222;52.242;20.980;2023-11-21T08:12:38;100048.28;;;-0.31;85.11
17607;BME280;69222;52.242;20.980;2023-11-21T08:15:08;100057.59;;;-0.30;84.60
17607;BME280;69222;52.242;20.980;2023-11-21T08:17:37;100059.34;;;-0.28;84.77
17607;BME280;69222;52.242;20.980;2023-11-21T08:20:06;100055.00;;;-0.32;84.51
17607;BME280;69222;52.242;20.980;2023-11-21T08:22:35;100057.59;;;-0.30;85.63
17607;BME280;69222;52.242;20.980;2023-11-21T08:25:04;100063.50;;;-0.30;85.80
17607;BME280;69222;52.242;20.980;2023-11-21T08:27:34;100070.41;;;-0.26;85.08
17607;BME280;69222;52.242;20.980;2023-11-21T08:30:02;100076.34;;;-0.25;85.44
17607;BME280;69222;52.242;20.980;2023-11-21T08:32:32;100074.59;;;-0.26;85.10
17607;BME280;69222;52.242;20.980;2023-11-21T08:35:01;100083.75;;;-0.30;84.93
17607;BME280;69222;52.242;20.980;2023-11-21T08:37:29;100078.69;;;-0.30;85.21
17607;BME280;69222;52.242;20.980;2023-11-21T08:40:00;100085.38;;;-0.32;85.45
17607;BME280;69222;52.242;20.980;2023-11-21T08:42:28;100080.25;;;-0.33;86.05
17607;BME280;69222;52.242;20.980;2023-11-21T08:44:57;100086.28;;;-0.30;84.83
17607;BME280;69222;52.242;20.980;2023-11-21T08:47:25;100088.81;;;-0.30;85.38
17607;BME280;69222;52.242;20.980;2023-11-21T08:49:55;100086.25;;;-0.31;85.61
17607;BME280;69222;52.242;20.980;2023-11-21T08:52:25;100094.78;;;-0.29;85.40
17607;BME280;69222;52.242;20.980;2023-11-21T08:54:54;100088.16;;;-0.24;85.26
17607;BME280;69222;52.242;20.980;2023-11-21T08:57:23;100090.00;;;-0.20;85.10
17607;BME280;69222;52.242;20.980;2023-11-21T08:59:51;100101.94;;;-0.16;85.03
17607;BME280;69222;52.242;20.980;2023-11-21T09:02:22;100097.78;;;-0.14;85.47
17607;BME280;69222;52.242;20.980;2023-11-21T09:04:50;100103.75;;;-0.12;85.27
17607;BME280;69222;52.242;20.980;2023-11-21T09:07:21;100108.81;;;-0.12;85.20
17607;BME280;69222;52.242;20.980;2023-11-21T09:09:49;100110.56;;;-0.11;85.58
17607;BME280;69222;52.242;20.980;2023-11-21T09:12:17;100103.84;;;-0.09;85.68
17607;BME280;69222;52.242;20.980;2023-11-21T09:14:46;100108.19;;;-0.05;85.51
17607;BME280;69222;52.242;20.980;2023-11-21T09:17:14;100109.97;;;-0.02;84.57
17607;BME280;69222;52.242;20.980;2023-11-21T09:19:42;100120.13;;;-0.02;84.28
17607;BME280;69222;52.242;20.980;2023-11-21T09:22:12;100117.63;;;-0.01;84.21
17607;BME280;69222;52.242;20.980;2023-11-21T09:24:41;100116.81;;;0.01;84.66
17607;BME280;69222;52.242;20.980;2023-11-21T09:27:09;100122.13;;;0.08;83.88
17607;BME280;69222;52.242;20.980;2023-11-21T09:29:38;100120.59;;;0.13;83.80
17607;BME280;69222;52.242;20.980;2023-11-21T09:32:06;100119.69;;;0.11;82.74
17607;BME280;69222;52.242;20.980;2023-11-21T09:34:35;100125.63;;;0.12;83.34
17607;BME280;69222;52.242;20.980;2023-11-21T09:37:05;100119.69;;;0.11;83.97
17607;BME280;69222;52.242;20.980;2023-11-21T09:39:34;100119.94;;;0.19;83.77
17607;BME280;69222;52.242;20.980;2023-11-21T09:42:09;100119.25;;;0.24;83.18
17607;BME280;69222;52.242;20.980;2023-11-21T09:44:45;100108.28;;;0.26;82.56
17607;BME280;69222;52.242;20.980;2023-11-21T09:47:15;100109.19;;;0.26;82.19
17607;BME280;69222;52.242;20.980;2023-11-21T09:49:47;100106.69;;;0.28;82.12
17607;BME280;69222;52.242;20.980;2023-11-21T09:52:22;100105.69;;;0.22;81.81
17607;BME280;69222;52.242;20.980;2023-11-21T09:54:53;100106.56;;;0.23;81.99
17607;BME280;69222;52.242;20.980;2023-11-21T09:57:25;100113.34;;;0.24;82.01
17607;BME280;69222;52.242;20.980;2023-11-21T09:59:55;100120.94;;;0.24;81.73
17607;BME280;69222;52.242;20.980;2023-11-21T10:02:27;100122.50;;;0.20;82.16
17607;BME280;69222;52.242;20.980;2023-11-21T10:04:59;100122.53;;;0.22;80.78
17607;BME280;69222;52.242;20.980;2023-11-21T10:07:28;100117.25;;;0.14;81.41
17607;BME280;69222;52.242;20.980;2023-11-21T10:10:00;100136.72;;;0.15;81.39
17607;BME280;69222;52.242;20.980;2023-11-21T10:12:32;100134.13;;;0.14;81.93
17607;BME280;69222;52.242;20.980;2023-11-21T10:15:03;100134.94;;;0.13;81.97
17607;BME280;69222;52.242;20.980;2023-11-21T10:17:35;100138.41;;;0.15;81.72
17607;BME280;69222;52.242;20.980;2023-11-21T10:20:10;100135.91;;;0.16;82.34
17607;BME280;69222;52.242;20.980;2023-11-21T10:22:42;100135.22;;;0.22;82.86
17607;BME280;69222;52.242;20.980;2023-11-21T10:25:11;100133.75;;;0.29;82.74
17607;BME280;69222;52.242;20.980;2023-11-21T10:27:42;100138.09;;;0.33;82.13
17607;BME280;69222;52.242;20.980;2023-11-21T10:30:11;100133.13;;;0.36;82.06
17607;BME280;69222;52.242;20.980;2023-11-21T10:32:39;100122.81;;;0.30;81.95
17607;BME280;69222;52.242;20.980;2023-11-21T10:35:08;100121.16;;;0.32;82.00
17607;BME280;69222;52.242;20.980;2023-11-21T10:37:38;100122.88;;;0.33;81.75
17607;BME280;69222;52.242;20.980;2023-11-21T10:40:09;100121.16;;;0.32;82.17
17607;BME280;69222;52.242;20.980;2023-11-21T10:42:39;100137.28;;;0.34;81.67
17607;BME280;69222;52.242;20.980;2023-11-21T10:45:10;100147.38;;;0.32;81.60
17607;BME280;69222;52.242;20.980;2023-11-21T10:47:41;100144.81;;;0.32;81.47
17607;BME280;69222;52.242;20.980;2023-11-21T10:50:10;100144.91;;;0.34;82.04
17607;BME280;69222;52.242;20.980;2023-11-21T10:52:39;100147.47;;;0.35;81.39
17607;BME280;69222;52.242;20.980;2023-11-21T10:55:16;100150.81;;;0.34;81.21
17607;BME280;69222;52.242;20.980;2023-11-21T10:57:51;100157.56;;;0.34;81.74
17607;BME280;69222;52.242;20.980;2023-11-21T11:00:21;100153.28;;;0.33;81.42
17607;BME280;69222;52.242;20.980;2023-11-21T11:02:52;100156.78;;;0.36;81.31
17607;BME280;69222;52.242;20.980;2023-11-21T11:05:22;100155.91;;;0.36;81.65
17607;BME280;69222;52.242;20.980;2023-11-21T11:07:51;100156.06;;;0.40;81.68
17607;BME280;69222;52.242;20.980;2023-11-21T11:10:21;100151.78;;;0.38;80.06
17607;BME280;69222;52.242;20.980;2023-11-21T11:12:53;100154.06;;;0.30;80.06
17607;BME280;69222;52.242;20.980;2023-11-21T11:15:24;100151.31;;;0.22;81.48
17607;BME280;69222;52.242;20.980;2023-11-21T11:17:54;100150.34;;;0.19;81.78
17607;BME280;69222;52.242;20.980;2023-11-21T11:20:29;100154.50;;;0.17;81.96
17607;BME280;69222;52.242;20.980;2023-11-21T11:23:13;100156.91;;;0.14;81.94
17607;BME280;69222;52.242;20.980;2023-11-21T11:25:57;100154.25;;;0.09;82.22
17607;BME280;69222;52.242;20.980;2023-11-21T11:28:42;100163.41;;;0.06;82.53
17607;BME280;69222;52.242;20.980;2023-11-21T11:31:21;100169.34;;;0.06;82.72
17607;BME280;69222;52.242;20.980;2023-11-21T11:33:58;100172.63;;;0.04;83.29
17607;BME280;69222;52.242;20.980;2023-11-21T11:36:30;100171.03;;;0.06;83.09
17607;BME280;69222;52.242;20.980;2023-11-21T11:39:00;100167.47;;;0.01;82.97
17607;BME280;69222;52.242;20.980;2023-11-21T11:41:31;100171.72;;;0.02;83.16
17607;BME280;69222;52.242;20.980;2023-11-21T11:44:01;100172.44;;;-0.03;83.13
17607;BME280;69222;52.242;20.980;2023-11-21T11:46:43;100166.56;;;-0.02;83.30
17607;BME280;69222;52.242;20.980;2023-11-21T11:49:23;100164.75;;;-0.06;83.19
17607;BME280;69222;52.242;20.980;2023-11-21T11:54:54;100170.66;;;-0.05;83.08
17607;BME280;69222;52.242;20.980;2023-11-21T11:57:24;100174.13;;;-0.03;83.04
17607;BME280;69222;52.242;20.980;2023-11-21T12:00:11;100171.63;;;-0.02;82.93
17607;BME280;69222;52.242;20.980;2023-11-21T12:02:46;100176.69;;;-0.02;82.30
17607;BME280;69222;52.242;20.980;2023-11-21T12:05:16;100171.63;;;-0.02;82.82
17607;BME280;69222;52.242;20.980;2023-11-21T12:07:48;100181.88;;;0.02;82.64
17607;BME280;69222;52.242;20.980;2023-11-21T12:10:18;100175.97;;;0.03;82.44
17607;BME280;69222;52.242;20.980;2023-11-21T12:12:48;100176.84;;;0.03;82.26
17607;BME280;69222;52.242;20.980;2023-11-21T12:15:16;100185.16;;;-0.01;80.86
17607;BME280;69222;52.242;20.980;2023-11-21T12:17:49;100184.16;;;-0.06;81.89
17607;BME280;69222;52.242;20.980;2023-11-21T12:20:19;100189.22;;;-0.06;81.61
17607;BME280;69222;52.242;20.980;2023-11-21T12:22:49;100195.13;;;-0.06;81.26
17607;BME280;69222;52.242;20.980;2023-11-21T12:25:18;100203.53;;;-0.07;81.55
17607;BME280;69222;52.242;20.980;2023-11-21T12:27:48;100196.09;;;-0.02;81.78
17607;BME280;69222;52.242;20.980;2023-11-21T12:30:20;100197.88;;;0.01;80.47
17607;BME280;69222;52.242;20.980;2023-11-21T12:32:51;100208.78;;;-0.01;80.93
17607;BME280;69222;52.242;20.980;2023-11-21T12:35:22;100201.06;;;-0.05;80.79
17607;BME280;69222;52.242;20.980;2023-11-21T12:37:52;100209.47;;;-0.06;80.78
17607;BME280;69222;52.242;20.980;2023-11-21T12:40:20;100211.19;;;-0.05;81.28
17607;BME280;69222;52.242;20.980;2023-11-21T12:42:52;100210.44;;;-0.03;80.70
17607;BME280;69222;52.242;20.980;2023-11-21T12:45:22;100213.97;;;0.03;81.04
17607;BME280;69222;52.242;20.980;2023-11-21T12:47:55;100212.38;;;0.05;80.86
17607;BME280;69222;52.242;20.980;2023-11-21T12:50:28;100203.94;;;0.06;80.43
17607;BME280;69222;52.242;20.980;2023-11-21T12:53:00;100208.16;;;0.05;80.77
17607;BME280;69222;52.242;20.980;2023-11-21T12:55:31;100203.03;;;0.04;80.92
17607;BME280;69222;52.242;20.980;2023-11-21T12:58:01;100206.47;;;0.06;80.72
17607;BME280;69222;52.242;20.980;2023-11-21T13:00:38;100213.25;;;0.07;80.71
17607;BME280;69222;52.242;20.980;2023-11-21T13:03:11;100213.25;;;0.07;80.50
17607;BME280;69222;52.242;20.980;2023-11-21T13:05:46;100213.25;;;0.07;81.15